Time;durP1;ratioP1;P1;durP2;ratioP2;P2;SDS_P1;SDS_P2;PMS_P1;PMS_P2;Temp;Humidity;BMP_temperature;BMP_pressure;BME280_temperature;BME280_humidity;BME280_pressure;Samples;Min_cycle;Max_cycle;Signal;HPM_P1;HPM_P2
2023/11/21 00:01:17;;;;;;;18.88;10.88;;;;;;;5.27;72.60;99217.78;6142474;23;20000;-92
2023/11/21 00:03:43;;;;;;;18.98;10.25;;;;;;;5.06;73.36;99217.41;6167387;23;20005;-93
2023/11/21 00:06:12;;;;;;;18.20;10.35;;;;;;;5.30;72.96;99236.00;6167602;23;20005;-93
2023/11/21 00:08:40;;;;;;;17.90;9.32;;;;;;;5.16;72.81;99226.66;6167238;23;20079;-92
2023/11/21 00:11:06;;;;;;;18.70;10.15;;;;;;;5.19;73.14;99231.53;6142817;23;20436;-92
2023/11/21 00:13:32;;;;;;;15.30;8.65;;;;;;;5.26;72.52;99226.84;6142180;23;20100;-92
2023/11/21 00:15:58;;;;;;;16.25;8.50;;;;;;;5.46;72.67;99251.28;6167062;23;20004;-93
2023/11/21 00:18:24;;;;;;;13.77;7.90;;;;;;;5.41;72.54;99237.81;6142769;23;20328;-92
2023/11/21 00:20:49;;;;;;;13.00;7.90;;;;;;;5.41;72.49;99229.81;6142754;23;20063;-92
2023/11/21 00:23:16;;;;;;;12.57;7.32;;;;;;;5.46;72.20;99229.91;6142808;23;20104;-93
2023/11/21 00:25:42;;;;;;;15.55;8.93;;;;;;;5.36;71.88;99224.38;6166769;23;20087;-94
2023/11/21 00:28:10;;;;;;;21.17;10.43;;;;;;;5.20;72.67;99217.13;6167443;23;20012;-93
2023/11/21 00:30:36;;;;;;;17.30;8.75;;;;;;;5.12;72.45;99222.81;6168060;23;19997;-94
2023/11/21 00:33:02;;;;;;;22.30;10.25;;;;;;;5.16;72.03;99229.31;6167286;23;20049;-92
2023/11/21 00:35:27;;;;;;;21.90;10.65;;;;;;;5.05;72.25;99218.44;6143135;23;20083;-95
2023/11/21 00:37:53;;;;;;;26.42;11.73;;;;;;;5.15;72.44;99227.69;6143212;23;20004;-94
2023/11/21 00:40:22;;;;;;;24.17;13.30;;;;;;;5.23;72.54;99233.47;6142300;23;20005;-93
2023/11/21 00:42:47;;;;;;;26.23;12.35;;;;;;;5.15;72.70;99231.19;6143910;23;20004;-94
2023/11/21 00:45:13;;;;;;;20.73;11.77;;;;;;;5.11;72.33;99216.69;6142200;23;20027;-93
2023/11/21 00:47:40;;;;;;;23.63;11.38;;;;;;;5.18;72.49;99216.53;6142836;23;20007;-93
2023/11/21 00:50:08;;;;;;;23.33;12.70;;;;;;;5.13;72.97;99224.47;6142229;23;19997;-94
2023/11/21 00:52:33;;;;;;;24.35;11.95;;;;;;;5.04;72.51;99200.81;6142184;23;19997;-94
2023/11/21 00:54:59;;;;;;;20.15;11.02;;;;;;;5.10;71.91;99201.72;6141739;23;20057;-93
2023/11/21 00:57:26;;;;;;;20.65;11.75;;;;;;;5.14;72.76;99215.38;6142226;23;19996;-93
2023/11/21 00:59:51;;;;;;;22.27;11.68;;;;;;;5.00;72.47;99197.00;6166623;23;20474;-94
2023/11/21 01:02:20;;;;;;;20.48;10.63;;;;;;;4.92;73.38;99194.69;6166765;23;20001;-94
2023/11/21 01:04:45;;;;;;;18.60;11.38;;;;;;;4.97;72.50;99204.66;6166602;23;20001;-93
2023/11/21 01:07:11;;;;;;;20.33;10.73;;;;;;;4.89;72.37;99197.00;6142053;23;20016;-94
2023/11/21 01:09:36;;;;;;;18.00;10.68;;;;;;;4.88;72.42;99188.22;6166525;23;19996;-94
2023/11/21 01:12:02;;;;;;;16.25;10.15;;;;;;;5.12;72.53;99230.84;6166578;23;20443;-92
2023/11/21 01:14:28;;;;;;;25.02;11.65;;;;;;;4.88;72.87;99196.22;6143898;23;20004;-92
2023/11/21 01:16:53;;;;;;;22.13;11.48;;;;;;;4.90;72.71;99207.47;6141901;23;20073;-93
2023/11/21 01:19:19;;;;;;;20.40;11.00;;;;;;;4.75;73.22;99199.13;6143213;23;20001;-93
2023/11/21 01:21:45;;;;;;;19.60;11.20;;;;;;;4.61;73.85;99212.72;6142525;23;20056;-92
2023/11/21 01:24:10;;;;;;;20.48;11.00;;;;;;;4.57;73.62;99216.88;6142758;23;20004;-94
2023/11/21 01:26:36;;;;;;;22.80;12.05;;;;;;;4.52;74.06;99227.41;6142069;23;20035;-93
2023/11/21 01:29:02;;;;;;;17.38;10.75;;;;;;;4.48;73.59;99199.59;6166903;23;20007;-94
2023/11/21 01:31:29;;;;;;;17.13;10.77;;;;;;;4.48;73.47;99204.94;6143987;23;20003;-93
2023/11/21 01:33:56;;;;;;;18.27;11.73;;;;;;;4.38;74.36;99208.19;6143886;23;20428;-93
2023/11/21 01:36:21;;;;;;;20.05;11.70;;;;;;;4.30;74.55;99191.75;6142695;23;20005;-93
2023/11/21 01:38:50;;;;;;;16.85;11.13;;;;;;;4.22;74.02;99199.03;6142890;23;20007;-94
2023/11/21 01:41:15;;;;;;;18.52;9.95;;;;;;;4.10;74.29;99179.56;6143238;23;19997;-93
2023/11/21 01:43:41;;;;;;;19.58;9.27;;;;;;;4.02;73.86;99177.25;6142738;23;20091;-93
2023/11/21 01:46:08;;;;;;;17.30;10.23;;;;;;;4.09;74.00;99209.94;6141997;23;20407;-93
2023/11/21 01:48:33;;;;;;;21.23;10.60;;;;;;;3.82;74.24;99177.56;6141846;23;20000;-94
2023/11/21 01:50:59;;;;;;;16.90;10.23;;;;;;;3.85;74.13;99187.75;6141784;23;20003;-93
2023/11/21 01:53:25;;;;;;;19.45;10.80;;;;;;;3.96;74.18;99194.13;6142118;23;20075;-93
2023/11/21 01:55:52;;;;;;;16.58;9.85;;;;;;;3.92;73.86;99177.00;6142410;23;20035;-93
2023/11/21 01:58:17;;;;;;;19.55;9.93;;;;;;;3.84;73.66;99178.97;6166411;23;20005;-93
2023/11/21 02:00:43;;;;;;;20.52;10.40;;;;;;;3.88;74.33;99182.00;6141127;23;20088;-93
2023/11/21 02:03:10;;;;;;;19.40;10.93;;;;;;;3.82;74.10;99188.22;6142625;23;20011;-93
2023/11/21 02:05:38;;;;;;;18.98;10.60;;;;;;;3.88;74.28;99186.47;6142094;23;20428;-93
2023/11/21 02:08:04;;;;;;;20.92;10.80;;;;;;;3.96;73.63;99186.16;6167389;23;20004;-93
2023/11/21 02:10:30;;;;;;;16.60;10.77;;;;;;;3.87;74.00;99190.19;6141892;23;20016;-92
2023/11/21 02:12:58;;;;;;;20.15;10.10;;;;;;;4.05;74.30;99220.22;6165907;23;20060;-91
2023/11/21 02:15:26;;;;;;;20.77;10.52;;;;;;;3.96;74.57;99202.94;6142586;23;20007;-92
2023/11/21 02:17:53;;;;;;;17.50;11.27;;;;;;;3.82;74.15;99190.88;6142822;23;20064;-91
2023/11/21 02:20:24;;;;;;;20.58;10.43;;;;;;;3.87;75.10;99195.53;6142464;23;20011;-91
2023/11/21 02:22:57;;;;;;;15.05;9.85;;;;;;;3.94;74.41;99199.69;6167965;23;20019;-92
2023/11/21 02:25:29;;;;;;;16.33;9.82;;;;;;;4.08;74.39;99200.28;6144707;23;20012;-92
2023/11/21 02:27:55;;;;;;;22.20;10.60;;;;;;;4.05;74.59;99203.44;6169048;23;20451;-93
2023/11/21 02:30:27;;;;;;;15.45;10.30;;;;;;;3.99;74.13;99199.03;6167644;23;20004;-93
2023/11/21 02:32:53;;;;;;;17.90;10.05;;;;;;;4.05;73.89;99208.75;6145339;23;20011;-93
2023/11/21 02:35:22;;;;;;;21.48;10.55;;;;;;;3.98;74.50;99192.84;6168529;23;20416;-93
2023/11/21 02:37:48;;;;;;;20.13;10.60;;;;;;;3.98;74.33;99197.38;6145236;23;20059;-91
2023/11/21 02:40:20;;;;;;;21.77;10.30;;;;;;;3.78;74.93;99176.41;6168817;23;19997;-93
2023/11/21 02:42:51;;;;;;;;;;;;;;;3.91;75.19;99200.16;6170708;23;20032;-92
2023/11/21 02:45:17;;;;;;;19.77;10.15;;;;;;;3.81;75.42;99194.59;6168468;23;20323;-93
2023/11/21 02:47:43;;;;;;;16.65;11.13;;;;;;;3.63;74.40;99184.81;6142888;23;20076;-93
2023/11/21 02:50:09;;;;;;;17.50;10.02;;;;;;;3.51;74.68;99162.66;6168639;23;20408;-93
2023/11/21 02:52:35;;;;;;;20.48;11.50;;;;;;;3.67;74.10;99169.19;6143992;23;20015;-93
2023/11/21 02:55:04;;;;;;;16.60;9.80;;;;;;;3.64;74.11;99173.13;6143713;23;20000;-91
2023/11/21 02:57:32;;;;;;;17.60;9.90;;;;;;;3.44;74.43;99146.78;6143794;23;19984;-92
2023/11/21 02:59:59;;;;;;;16.85;10.02;;;;;;;3.51;74.97;99162.66;6144064;23;19997;-93
2023/11/21 03:02:25;;;;;;;17.60;10.05;;;;;;;3.63;74.40;99187.47;6143472;23;20085;-93
2023/11/21 03:04:51;;;;;;;23.48;9.95;;;;;;;3.56;75.07;99168.13;6143027;23;20311;-94
2023/11/21 03:07:19;;;;;;;18.05;10.38;;;;;;;3.74;73.81;99177.91;6142715;23;20007;-94
2023/11/21 03:09:45;;;;;;;19.40;10.25;;;;;;;3.69;73.90;99154.59;6144041;23;20948;-93
2023/11/21 03:12:12;;;;;;;21.90;9.70;;;;;;;3.57;74.56;99162.59;6143465;23;20012;-92
2023/11/21 03:14:38;;;;;;;17.42;9.88;;;;;;;3.52;75.06;99182.94;6167733;23;20071;-95
2023/11/21 03:17:04;;;;;;;16.48;10.48;;;;;;;3.41;74.81;99177.34;6167811;23;20392;-93
2023/11/21 03:19:30;;;;;;;16.08;10.32;;;;;;;3.41;74.96;99185.31;6142935;23;20004;-93
2023/11/21 03:21:56;;;;;;;18.90;10.57;;;;;;;3.57;74.35;99183.88;6142581;23;20432;-92
2023/11/21 03:24:23;;;;;;;16.60;9.88;;;;;;;3.62;73.93;99175.22;6143217;23;20008;-92
2023/11/21 03:26:50;;;;;;;17.10;10.60;;;;;;;3.58;74.00;99172.19;6143648;23;20411;-92
2023/11/21 03:29:16;;;;;;;17.42;9.75;;;;;;;3.62;73.88;99185.84;6143114;23;20000;-92
2023/11/21 03:31:41;;;;;;;15.75;10.07;;;;;;;3.48;74.47;99174.59;6144081;23;20005;-91
2023/11/21 03:34:15;;;;;;;17.48;9.65;;;;;;;3.60;74.37;99180.75;6143085;23;19997;-93
2023/11/21 03:36:40;;;;;;;25.08;11.68;;;;;;;3.55;74.21;99183.31;6143649;23;20328;-93
2023/11/21 03:39:06;;;;;;;20.73;10.35;;;;;;;3.47;74.15;99174.84;6167484;23;20054;-93
2023/11/21 03:41:32;;;;;;;28.75;10.63;;;;;;;3.50;74.65;99193.81;6143468;23;20423;-92
2023/11/21 03:43:57;;;;;;;19.95;10.55;;;;;;;3.33;74.84;99180.31;6144120;23;20011;-92
2023/11/21 03:46:23;;;;;;;18.17;10.63;;;;;;;3.27;75.13;99170.56;6143856;23;20011;-93
2023/11/21 03:48:48;;;;;;;18.42;9.55;;;;;;;3.21;74.72;99164.31;6142568;23;20007;-92
2023/11/21 03:51:14;;;;;;;20.60;10.88;;;;;;;3.24;75.06;99190.47;6143422;23;20080;-92
2023/11/21 03:53:39;;;;;;;21.70;10.02;;;;;;;3.16;74.96;99185.47;6143924;23;20004;-93
2023/11/21 03:56:05;;;;;;;20.30;10.30;;;;;;;3.33;74.50;99179.50;6144399;23;20060;-93
2023/11/21 03:58:34;;;;;;;23.45;10.40;;;;;;;3.28;74.23;99169.56;6168109;23;20005;-95
2023/11/21 04:01:00;;;;;;;19.23;11.60;;;;;;;3.20;75.04;99167.22;6145348;23;20004;-93
2023/11/21 04:03:26;;;;;;;20.30;10.27;;;;;;;3.26;74.65;99184.09;6168305;23;20083;-92
2023/11/21 04:05:51;;;;;;;21.42;10.93;;;;;;;3.03;75.05;99167.03;6144636;23;20055;-92
2023/11/21 04:08:17;;;;;;;16.73;10.63;;;;;;;3.33;74.49;99188.31;6143855;23;20079;-92
2023/11/21 04:10:43;;;;;;;21.02;11.02;;;;;;;3.47;74.41;99185.47;6143069;23;20058;-93
2023/11/21 04:13:08;;;;;;;22.00;10.88;;;;;;;3.42;74.20;99194.94;6143504;23;20435;-91
2023/11/21 04:15:34;;;;;;;20.38;10.60;;;;;;;3.28;74.37;99177.53;6143412;23;20020;-93
2023/11/21 04:18:00;;;;;;;17.08;10.38;;;;;;;3.32;74.61;99189.34;6142769;23;20434;-92
2023/11/21 04:20:25;;;;;;;15.43;10.10;;;;;;;3.60;74.41;99209.22;6143817;23;19996;-93
2023/11/21 04:22:51;;;;;;;23.05;11.32;;;;;;;3.34;74.04;99184.63;6143467;23;20020;-93
2023/11/21 04:25:17;;;;;;;15.68;10.02;;;;;;;3.39;74.13;99186.59;6143044;23;20000;-93
2023/11/21 04:27:43;;;;;;;17.73;10.13;;;;;;;3.35;74.34;99175.59;6143664;23;20081;-93
2023/11/21 04:30:11;;;;;;;22.23;12.30;;;;;;;3.36;74.16;99179.88;6167118;23;20455;-92
2023/11/21 04:32:37;;;;;;;13.43;9.02;;;;;;;3.67;74.20;99201.13;6167601;23;20008;-92
2023/11/21 04:35:03;;;;;;;21.25;8.75;;;;;;;3.71;74.65;99187.13;6167127;23;20443;-94
2023/11/21 04:37:29;;;;;;;15.52;8.75;;;;;;;3.73;73.84;99190.38;6142851;23;20439;-93
2023/11/21 04:39:55;;;;;;;14.05;8.88;;;;;;;3.80;74.09;99214.28;6167610;23;19996;-92
2023/11/21 04:42:20;;;;;;;15.15;9.32;;;;;;;3.52;74.11;99188.25;6141790;23;20004;-94
2023/11/21 04:44:46;;;;;;;21.83;10.15;;;;;;;3.47;74.07;99194.25;6140791;23;20084;-94
2023/11/21 04:47:12;;;;;;;18.00;10.27;;;;;;;3.46;73.65;99199.81;6142027;23;20066;-93
2023/11/21 04:49:37;;;;;;;16.23;10.05;;;;;;;3.42;74.04;99200.28;6165493;23;20000;-92
2023/11/21 04:52:04;;;;;;;18.20;9.57;;;;;;;3.50;74.21;99216.94;6142100;23;20013;-92
2023/11/21 04:54:31;;;;;;;20.55;10.65;;;;;;;3.29;73.87;99181.00;6142033;23;20007;-94
2023/11/21 04:56:56;;;;;;;23.27;13.05;;;;;;;3.23;74.45;99196.00;6140986;23;20001;-92
2023/11/21 04:59:26;;;;;;;33.15;14.93;;;;;;;3.19;74.57;99195.63;6167000;23;19997;-92
2023/11/21 05:01:53;;;;;;;22.50;12.98;;;;;;;3.16;74.78;99217.38;6142633;23;20337;-92
2023/11/21 05:04:19;;;;;;;19.88;11.65;;;;;;;3.16;74.04;99205.94;6166258;23;20066;-92
2023/11/21 05:06:46;;;;;;;42.17;14.15;;;;;;;3.08;75.11;99201.72;6141234;23;20008;-93
2023/11/21 05:09:12;;;;;;;25.90;12.88;;;;;;;3.10;75.01;99206.84;6142456;23;20004;-92
2023/11/21 05:11:37;;;;;;;24.55;11.75;;;;;;;3.07;74.84;99209.94;6142213;23;20436;-93
2023/11/21 05:14:04;;;;;;;21.60;11.65;;;;;;;3.09;74.80;99202.53;6141870;23;20087;-93
2023/11/21 05:16:30;;;;;;;22.90;11.60;;;;;;;2.97;75.17;99197.97;6142017;23;20000;-92
2023/11/21 05:19:01;;;;;;;18.38;11.60;;;;;;;3.00;75.12;99196.72;6168497;23;20350;-93
2023/11/21 05:21:27;;;;;;;22.90;10.18;;;;;;;2.97;75.04;99205.16;6147523;23;19992;-91
2023/11/21 05:23:58;;;;;;;27.52;11.10;;;;;;;2.97;74.88;99208.63;6167891;23;20032;-94
2023/11/21 05:26:27;;;;;;;42.37;16.03;;;;;;;3.10;74.71;99222.78;6144556;23;20000;-93
2023/11/21 05:28:53;;;;;;;32.33;13.52;;;;;;;2.98;74.74;99210.22;6144122;23;19996;-93
2023/11/21 05:31:19;;;;;;;39.00;14.95;;;;;;;3.08;74.03;99204.38;6166881;23;20001;-93
2023/11/21 05:33:45;;;;;;;27.20;14.45;;;;;;;3.10;74.70;99206.84;6143351;23;20063;-92
2023/11/21 05:36:11;;;;;;;21.08;10.90;;;;;;;3.08;74.55;99201.72;6142212;23;20443;-91
2023/11/21 05:38:37;;;;;;;26.95;16.02;;;;;;;3.27;75.88;99239.75;6142893;23;20351;-92
2023/11/21 05:41:06;;;;;;;22.73;14.80;;;;;;;3.16;75.45;99221.91;6142455;23;20001;-92
2023/11/21 05:43:35;;;;;;;22.67;12.63;;;;;;;3.29;74.89;99212.94;6167087;23;20134;-92
2023/11/21 05:46:01;;;;;;;26.45;12.07;;;;;;;3.28;75.22;99212.13;6143830;23;20007;-92
2023/11/21 05:48:32;;;;;;;32.75;13.48;;;;;;;3.31;74.89;99210.84;6142169;23;20320;-94
2023/11/21 05:51:08;;;;;;;26.58;11.90;;;;;;;3.58;74.03;99222.75;6143939;23;19992;-93
2023/11/21 05:53:33;;;;;;;22.02;9.98;;;;;;;3.70;73.84;99220.16;6146603;23;19996;-93
2023/11/21 05:56:03;;;;;;;18.23;9.90;;;;;;;3.81;73.34;99243.31;6143218;23;20000;-93
2023/11/21 05:58:29;;;;;;;18.27;11.10;;;;;;;3.83;72.95;99241.25;6146486;23;20007;-95
2023/11/21 06:00:55;;;;;;;20.92;11.52;;;;;;;3.90;72.78;99225.19;6143296;23;20024;-94
2023/11/21 06:03:20;;;;;;;23.17;11.50;;;;;;;3.88;72.59;99215.78;6144586;23;20066;-93
2023/11/21 06:05:46;;;;;;;20.83;11.98;;;;;;;3.85;73.16;99214.38;6145855;23;20506;-95
2023/11/21 06:08:16;;;;;;;20.83;11.43;;;;;;;4.00;73.33;99217.41;6146337;23;20036;-94
2023/11/21 06:10:49;;;;;;;18.67;10.93;;;;;;;4.02;73.05;99217.19;6165274;23;20025;-94
2023/11/21 06:13:17;;;;;;;26.92;10.20;;;;;;;4.17;73.06;99246.91;6142886;23;20005;-94
2023/11/21 06:15:47;;;;;;;17.25;9.80;;;;;;;4.31;72.46;99236.81;6143383;23;20339;-96
2023/11/21 06:18:19;;;;;;;32.30;11.70;;;;;;;4.28;72.30;99229.28;6141869;23;20001;-95
2023/11/21 06:20:52;;;;;;;23.60;10.75;;;;;;;4.45;72.07;99221.41;6143289;23;20001;-96
2023/11/21 06:23:18;;;;;;;28.65;13.48;;;;;;;4.57;72.23;99226.75;6147829;23;20040;-95
2023/11/21 06:25:57;;;;;;;;;;;;;;;;;;;;;
2023/11/21 06:28:32;;;;;;;22.73;11.48;;;;;;;4.50;71.70;99228.69;6167887;23;20396;-95
2023/11/21 06:31:37;;;;;;;25.58;14.25;;;;;;;4.69;70.55;99216.88;6142031;23;19997;-96
2023/11/21 06:46:57;;;;;;;26.52;14.95;;;;;;;4.91;69.86;99209.06;6211755;22;20088;-96
2023/11/21 06:52:13;;;;;;;44.53;27.95;;;;;;;5.22;70.25;99215.03;6222625;22;20016;-96
2023/11/21 06:55:21;;;;;;;24.92;15.00;;;;;;;5.46;68.65;99221.91;6207242;23;20020;-95
2023/11/21 06:58:07;;;;;;;23.23;13.75;;;;;;;5.36;69.14;99195.00;6184229;23;20005;-95
2023/11/21 07:00:38;;;;;;;18.35;10.65;;;;;;;5.41;68.70;99186.28;6182067;23;20064;-96
2023/11/21 07:03:34;;;;;;;24.58;12.52;;;;;;;5.61;68.79;99216.03;6182322;23;20020;-96
2023/11/21 07:07:36;;;;;;;;;;;;;;;;;;;;;
2023/11/21 07:09:45;;;;;;;26.27;11.35;;;;;;;5.67;68.18;99206.25;6090195;23;20093;-94
2023/11/21 07:12:14;;;;;;;26.42;12.55;;;;;;;5.66;68.19;99194.75;6050921;23;20404;-94
2023/11/21 07:14:44;;;;;;;21.48;13.55;;;;;;;5.79;67.43;99208.84;6141423;23;20001;-96
2023/11/21 07:17:15;;;;;;;29.13;14.77;;;;;;;5.82;68.55;99208.38;6143950;23;19984;-93
2023/11/21 07:19:52;;;;;;;30.27;16.95;;;;;;;5.88;68.34;99180.69;6168581;23;20008;-96
2023/11/21 07:22:39;;;;;;;59.75;27.50;;;;;;;5.90;68.31;99175.91;6170086;23;20009;-94
2023/11/21 07:25:07;;;;;;;41.05;23.88;;;;;;;6.06;67.22;99175.13;6079956;23;20001;-93
2023/11/21 07:27:37;;;;;;;51.80;29.05;;;;;;;6.24;67.54;99187.41;6057649;23;20091;-95
2023/11/21 07:30:05;;;;;;;49.20;29.40;;;;;;;6.35;67.57;99191.06;6106611;23;20002;-92
2023/11/21 07:32:35;;;;;;;122.00;57.65;;;;;;;6.44;67.98;99202.97;6080914;23;20060;-96
2023/11/21 07:35:01;;;;;;;107.10;52.38;;;;;;;6.49;67.65;99196.88;6056016;23;20002;-92
2023/11/21 07:37:30;;;;;;;76.72;38.88;;;;;;;6.51;66.90;99169.88;6125314;23;20102;-91
2023/11/21 07:39:59;;;;;;;140.77;70.78;;;;;;;6.76;67.05;99178.25;6126678;23;20006;-92
2023/11/21 07:42:27;;;;;;;183.63;92.18;;;;;;;6.91;66.59;99183.00;6079381;23;20009;-91
2023/11/21 07:44:56;;;;;;;74.53;43.45;;;;;;;7.27;66.17;99210.19;6078577;23;20046;-94
2023/11/21 07:47:22;;;;;;;91.30;43.67;;;;;;;7.08;65.61;99183.72;6103860;23;20065;-93
2023/11/21 07:49:47;;;;;;;75.68;37.47;;;;;;;7.16;66.28;99187.84;6078616;23;20092;-93
2023/11/21 07:52:16;;;;;;;53.95;26.67;;;;;;;7.22;65.78;99176.13;6080179;23;20018;-92
2023/11/21 07:54:42;;;;;;;70.88;38.67;;;;;;;7.39;65.36;99180.59;6081309;23;20001;-95
2023/11/21 07:57:28;;;;;;;48.85;29.17;;;;;;;7.51;65.33;99178.53;6145605;23;19996;-95
2023/11/21 07:59:56;;;;;;;67.35;33.17;;;;;;;7.82;64.91;99187.72;6155652;23;20384;-94
2023/11/21 08:02:41;;;;;;;42.67;23.05;;;;;;;8.07;64.93;99186.28;6158501;23;20023;-96
2023/11/21 08:06:05;;;;;;;48.00;28.48;;;;;;;8.28;64.03;99177.34;6135687;23;20061;-95
2023/11/21 08:09:17;;;;;;;172.43;83.43;;;;;;;8.46;64.01;99169.94;6068115;23;20061;-94
2023/11/21 08:21:39;;;;;;;106.95;46.10;;;;;;;9.03;62.06;99190.63;6002114;23;20063;-94
2023/11/21 08:24:10;;;;;;;;;;;;;;;9.22;61.68;99188.28;6081050;23;20069;-95
2023/11/21 08:26:39;;;;;;;42.25;22.75;;;;;;;9.00;60.33;99153.56;6074453;23;20313;-95
2023/11/21 08:29:10;;;;;;;36.65;20.70;;;;;;;9.39;60.75;99181.88;6051647;23;20026;-95
2023/11/21 08:31:36;;;;;;;36.72;18.08;;;;;;;9.46;60.77;99163.63;6057542;23;20092;-93
2023/11/21 08:34:39;;;;;;;28.30;16.70;;;;;;;9.56;60.45;99152.09;6056844;23;20102;-94
2023/11/21 08:37:12;;;;;;;38.38;18.60;;;;;;;9.77;59.86;99159.06;6160948;23;20406;-93
2023/11/21 08:39:41;;;;;;;53.22;28.05;;;;;;;9.89;59.55;99167.69;6143030;23;20040;-95
2023/11/21 08:42:14;;;;;;;35.67;21.13;;;;;;;9.84;59.73;99148.88;6142055;23;20005;-94
2023/11/21 08:44:56;;;;;;;;;;;;;;;;;;;;;
2023/11/21 08:47:24;;;;;;;45.20;18.75;;;;;;;10.21;58.20;99130.81;6173875;23;20024;-92
2023/11/21 08:50:04;;;;;;;30.75;16.23;;;;;;;10.27;58.25;99124.34;6171589;23;20344;-93
2023/11/21 08:52:30;;;;;;;28.92;11.75;;;;;;;10.52;57.06;99142.34;6146413;23;20046;-92
2023/11/21 08:54:56;;;;;;;20.60;10.70;;;;;;;10.61;56.76;99135.34;6142326;23;20004;-93
2023/11/21 08:57:25;;;;;;;23.50;11.57;;;;;;;10.67;56.35;99106.50;6144147;23;20463;-91
2023/11/21 08:59:55;;;;;;;19.45;10.68;;;;;;;10.87;55.69;99111.81;6172512;23;20000;-91
2023/11/21 09:02:26;;;;;;;25.60;12.40;;;;;;;11.11;54.56;99130.78;6150707;23;20000;-91
2023/11/21 09:04:52;;;;;;;25.13;12.75;;;;;;;11.08;54.93;99099.03;6176953;23;20000;-92
2023/11/21 09:07:26;;;;;;;24.75;12.77;;;;;;;11.25;54.81;99095.97;6178112;23;19997;-90
2023/11/21 09:10:04;;;;;;;22.77;11.18;;;;;;;11.52;54.47;99116.28;6176819;23;20005;-92
2023/11/21 09:12:43;;;;;;;23.75;12.80;;;;;;;11.42;54.23;99087.50;6156962;23;20004;-93
2023/11/21 09:15:37;;;;;;;187.23;108.07;;;;;;;11.64;54.75;99108.63;6179885;23;20015;-94
2023/11/21 09:18:06;;;;;;;37.50;17.77;;;;;;;11.59;54.24;99081.69;6166524;23;20012;-91
2023/11/21 09:20:31;;;;;;;24.60;11.88;;;;;;;11.65;53.68;99074.38;6165013;23;20064;-92
2023/11/21 09:22:57;;;;;;;20.88;11.23;;;;;;;11.75;53.75;99071.59;6141917;23;20346;-90
2023/11/21 09:25:23;;;;;;;29.33;10.77;;;;;;;11.83;53.84;99062.88;6165281;23;19997;-88
2023/11/21 09:27:57;;;;;;;34.72;22.33;;;;;;;12.05;53.38;99085.91;6146197;23;20054;-96
2023/11/21 09:30:56;;;;;;;;;;;;;;;;;;;;;
2023/11/21 09:38:57;;;;;;;23.20;12.03;;;;;;;12.56;52.43;99063.75;6237352;22;20773;31
2023/11/21 09:45:04;;;;;;;22.08;12.20;;;;;;;12.70;51.69;99021.44;6221760;22;20442;-96
2023/11/21 09:53:27;;;;;;;17.73;8.65;;;;;;;13.22;50.06;99018.78;6169269;23;20020;-96
2023/11/21 09:55:54;;;;;;;16.02;8.63;;;;;;;13.42;49.39;99020.38;6115203;23;20032;-96
2023/11/21 10:04:02;;;;;;;;;;;;;;;;;;;;;
2023/11/21 10:11:11;;;;;;;8.10;3.67;;;;;;;14.15;45.84;99002.56;6121051;23;20022;-94
2023/11/21 10:13:46;;;;;;;12.45;5.50;;;;;;;14.05;46.33;98966.75;6106674;23;20006;-93
2023/11/21 10:16:43;;;;;;;8.25;5.00;;;;;;;14.07;45.98;98968.06;6068623;23;20042;-95
2023/11/21 10:22:50;;;;;;;8.15;4.20;;;;;;;14.23;45.84;98971.25;5996730;24;20044;-96
2023/11/21 10:25:16;;;;;;;28.98;16.85;;;;;;;14.31;45.86;98973.25;6056138;23;20089;-96
2023/11/21 10:27:55;;;;;;;;;;;;;;;;;;;;;
2023/11/21 10:30:41;;;;;;;7.63;4.28;;;;;;;14.25;45.85;98944.66;6182871;23;20020;-95
2023/11/21 10:33:34;;;;;;;9.65;4.72;;;;;;;14.30;46.11;98941.88;6176037;23;20007;-95
2023/11/21 10:36:21;;;;;;;;;;;;;;;;;;;;;
2023/11/21 10:39:51;;;;;;;;;;;;;;;;;;;;;
2023/11/21 10:42:24;;;;;;;;;;;;;;;;;;;;;
2023/11/21 10:45:06;;;;;;;9.50;3.38;;;;;;;15.14;44.63;98942.41;6094824;23;20044;-95
2023/11/21 10:51:09;;;;;;;6.22;2.58;;;;;;;15.48;43.35;98922.00;6030408;23;20063;-95
2023/11/21 10:54:07;;;;;;;5.97;3.10;;;;;;;15.68;43.46;98934.25;6114482;23;20009;-96
2023/11/21 10:56:45;;;;;;;;;;;;;;;;;;;;;
2023/11/21 10:59:18;;;;;;;8.75;3.63;;;;;;;16.05;41.54;98924.81;6093592;23;20010;-95
2023/11/21 11:05:06;;;;;;;4.07;1.60;;;;;;;16.15;41.00;98891.94;6072830;23;20027;-94
2023/11/21 11:10:59;;;;;;;4.25;1.77;;;;;;;16.27;41.12;98887.78;6040692;23;20003;-94
2023/11/21 11:13:25;;;;;;;7.28;1.30;;;;;;;16.43;41.46;98905.22;6074588;23;20102;-94
2023/11/21 11:15:51;;;;;;;7.93;2.20;;;;;;;16.42;41.60;98884.59;6022054;23;20014;-93
2023/11/21 11:18:17;;;;;;;4.53;2.00;;;;;;;16.39;41.83;98879.78;6065630;23;20001;-94
2023/11/21 11:21:07;;;;;;;6.85;3.13;;;;;;;16.33;41.99;98865.59;6083790;23;20001;-93
2023/11/21 11:24:05;;;;;;;7.25;2.00;;;;;;;16.49;41.68;98889.56;6137719;23;20317;-93
2023/11/21 11:26:54;;;;;;;6.85;1.90;;;;;;;16.52;41.76;98888.94;6157112;23;20081;-92
2023/11/21 11:39:44;;;;;;;2.30;1.30;;;;;;;16.28;42.39;98841.28;6046921;23;20351;-94
2023/11/21 11:42:59;;;;;;;;;;;;;;;;;;;;;
2023/11/21 11:45:28;;;;;;;4.18;2.30;;;;;;;16.45;42.78;98847.84;5967909;23;20038;-94
2023/11/21 11:48:51;;;;;;;;;;;;;;;;;;;;;
2023/11/21 11:51:35;;;;;;;6.32;3.42;;;;;;;16.39;42.31;98830.09;5991636;24;20004;-91
2023/11/21 11:54:26;;;;;;;;;;;;;;;;;;;;;
2023/11/21 11:57:46;;;;;;;3.35;2.28;;;;;;;16.59;42.11;98839.53;6091354;23;20026;-92
2023/11/21 12:00:32;;;;;;;7.07;2.75;;;;;;;16.39;41.82;98795.56;6142840;23;20025;-91
2023/11/21 12:03:03;;;;;;;5.68;4.30;;;;;;;16.60;42.29;98816.66;6183100;23;20009;-92
2023/11/21 12:05:35;;;;;;;4.65;2.30;;;;;;;16.51;42.14;98800.34;6138455;23;20448;-93
2023/11/21 12:08:05;;;;;;;5.18;2.65;;;;;;;16.55;42.27;98796.66;6198095;23;20001;-90
2023/11/21 12:10:38;;;;;;;7.35;2.15;;;;;;;16.64;42.06;98801.28;6175736;23;20020;-94
2023/11/21 12:13:24;;;;;;;11.25;2.58;;;;;;;16.71;42.49;98809.75;6168333;23;20005;-96
2023/11/21 12:15:49;;;;;;;4.60;2.10;;;;;;;16.59;42.57;98798.75;6164075;23;20001;-93
2023/11/21 12:18:15;;;;;;;5.20;2.10;;;;;;;16.60;41.78;98773.16;6166710;23;20060;-94
2023/11/21 12:20:46;;;;;;;4.20;1.98;;;;;;;16.60;42.36;98790.28;6142328;23;20005;-93
2023/11/21 12:23:20;;;;;;;6.40;2.05;;;;;;;16.61;41.93;98789.16;6144253;23;20151;-95
2023/11/21 12:25:46;;;;;;;6.00;2.25;;;;;;;16.82;42.38;98805.59;6139999;23;20005;-92
2023/11/21 12:28:12;;;;;;;5.63;4.32;;;;;;;16.75;42.12;98781.59;6164036;23;20040;-92
2023/11/21 12:30:40;;;;;;;10.75;3.88;;;;;;;16.81;42.42;98779.53;6173595;23;20004;-93
2023/11/21 12:36:16;;;;;;;4.78;2.83;;;;;;;16.86;42.22;98778.56;6177928;23;20061;-94
2023/11/21 12:38:42;;;;;;;8.85;2.45;;;;;;;16.72;42.23;98781.44;6144022;23;19996;-91
2023/11/21 12:41:21;;;;;;;10.35;7.07;;;;;;;16.64;42.48;98777.63;6196169;23;20436;-95
2023/11/21 12:43:55;;;;;;;3.30;1.95;;;;;;;16.63;42.55;98767.09;6174074;23;20001;-93
2023/11/21 12:53:13;;;;;;;3.85;1.92;;;;;;;16.80;42.28;98779.84;6130166;23;20028;-93
2023/11/21 12:55:53;;;;;;;;;;;;;;;;;;;;;
2023/11/21 12:58:20;;;;;;;6.78;2.70;;;;;;;16.71;42.97;98772.50;6105199;23;20078;-93
2023/11/21 13:00:51;;;;;;;7.25;3.95;;;;;;;16.67;43.34;98771.53;6062019;23;20017;-93
2023/11/21 13:07:27;;;;;;;;;;;;;;;;;;;;;
2023/11/21 13:10:42;;;;;;;;;;;;;;;;;;;;;
2023/11/21 13:16:09;;;;;;;6.68;4.78;;;;;;;16.36;44.63;98782.63;6162986;23;20116;-94
2023/11/21 13:18:44;;;;;;;3.35;1.90;;;;;;;16.33;44.43;98777.81;6163135;23;20005;-93
2023/11/21 13:21:30;;;;;;;4.70;2.80;;;;;;;16.42;44.75;98788.72;6164325;23;20008;-94
2023/11/21 13:23:58;;;;;;;8.05;4.68;;;;;;;16.30;45.12;98784.72;6166704;23;20432;-94
2023/11/21 13:26:36;;;;;;;4.03;2.28;;;;;;;16.26;45.35;98791.91;6162602;23;19998;-94
2023/11/21 13:29:04;;;;;;;3.63;1.90;;;;;;;16.19;45.64;98786.16;6164904;23;20001;-93
2023/11/21 13:31:37;;;;;;;15.55;7.93;;;;;;;16.22;45.83;98785.50;6169736;23;20032;-96
2023/11/21 13:34:29;;;;;;;5.28;3.13;;;;;;;16.30;45.57;98800.22;6171277;23;20449;-95
2023/11/21 13:37:02;;;;;;;;;;;;;;;16.20;45.77;98797.81;6166242;23;20023;-95
2023/11/21 13:40:09;;;;;;;;;;;;;;;;;;;;;
2023/11/21 13:42:38;;;;;;;5.88;2.92;;;;;;;16.01;46.46;98766.34;6167752;23;20028;-93